Time;durP1;ratioP1;P1;durP2;ratioP2;P2;SDS_P1;SDS_P2;PMS_P1;PMS_P2;Temp;Humidity;BMP_temperature;BMP_pressure;BME280_temperature;BME280_humidity;BME280_pressure;Samples;Min_cycle;Max_cycle;Signal;HPM_P1;HPM_P2
2021/01/07 00:03:24;;;;;;;18.35;13.20;;;;;;;-0.13;86.82;98726.91;493903;1143;65116;-68
2021/01/07 00:13:29;;;;;;;24.50;17.35;;;;;;;-0.25;86.68;98717.86;493930;1143;65154;-65
2021/01/07 00:23:33;;;;;;;23.37;14.53;;;;;;;-0.34;86.98;98725.00;493834;1143;65580;-70
2021/01/07 00:33:37;;;;;;;22.77;14.87;;;;;;;-0.36;87.48;98737.11;493985;1143;65152;-75
2021/01/07 00:43:41;;;;;;;22.35;13.25;;;;;;;-0.30;87.71;98726.58;493564;1143;65180;-70
2021/01/07 00:53:45;;;;;;;21.73;14.27;;;;;;;-0.26;86.79;98722.16;493761;1143;65162;-71
2021/01/07 01:03:48;;;;;;;19.75;14.05;;;;;;;-0.30;87.07;98729.16;493664;1143;65136;-71
2021/01/07 01:13:53;;;;;;;16.90;13.17;;;;;;;-0.24;86.69;98742.77;493500;1143;65140;-71
2021/01/07 01:23:57;;;;;;;14.80;10.70;;;;;;;-0.16;86.79;98739.02;494273;1143;65174;-73
2021/01/07 01:34:01;;;;;;;15.93;11.63;;;;;;;-0.09;86.69;98739.66;493951;1143;65180;-72
2021/01/07 01:44:06;;;;;;;16.17;11.37;;;;;;;-0.12;87.36;98728.59;493814;1143;65558;-72
2021/01/07 01:54:10;;;;;;;15.35;11.65;;;;;;;-0.16;86.82;98733.03;494283;1143;65448;-71
2021/01/07 02:04:14;;;;;;;14.93;10.03;;;;;;;-0.24;87.40;98727.28;493999;1144;65210;-70
2021/01/07 02:14:18;;;;;;;19.57;13.53;;;;;;;-0.16;87.62;98735.61;493350;1143;65848;-74
2021/01/07 02:24:22;;;;;;;17.70;11.65;;;;;;;-0.15;87.68;98743.28;494021;1143;65283;-71
2021/01/07 02:34:26;;;;;;;21.50;11.20;;;;;;;-0.26;86.60;98739.39;494107;1143;65210;-71
2021/01/07 02:44:31;;;;;;;19.80;12.83;;;;;;;-0.33;86.77;98736.17;494529;1143;65175;-71
2021/01/07 02:54:35;;;;;;;19.75;13.00;;;;;;;-0.30;87.31;98723.99;493588;1143;65224;-72
2021/01/07 03:04:43;;;;;;;21.80;13.25;;;;;;;-0.39;87.79;98718.31;493887;1143;65210;-72
2021/01/07 03:14:47;;;;;;;22.00;12.83;;;;;;;-0.45;87.15;98721.94;494000;1143;65587;-70
2021/01/07 03:24:52;;;;;;;22.30;13.97;;;;;;;-0.36;87.33;98711.31;493622;1144;65108;-71
2021/01/07 03:34:56;;;;;;;27.37;15.60;;;;;;;-0.39;87.03;98710.57;493555;1143;65580;-73
2021/01/07 03:45:00;;;;;;;24.55;16.20;;;;;;;-0.41;87.04;98712.36;493452;1143;65169;-72
2021/01/07 03:55:05;;;;;;;25.00;15.77;;;;;;;-0.36;87.25;98707.88;493865;1143;65204;-72
2021/01/07 04:05:11;;;;;;;22.30;15.27;;;;;;;-0.41;86.92;98707.20;493992;1143;65165;-73
2021/01/07 04:15:15;;;;;;;18.50;12.07;;;;;;;-0.53;86.84;98711.88;494016;1144;65545;-71
2021/01/07 04:25:19;;;;;;;22.63;13.77;;;;;;;-0.48;87.38;98716.88;494150;1143;65114;-72
2021/01/07 04:35:23;;;;;;;23.70;14.55;;;;;;;-0.43;87.27;98718.42;494155;1143;65156;-72
2021/01/07 04:45:28;;;;;;;19.40;13.93;;;;;;;-0.39;87.31;98707.98;494295;1143;65582;-73
2021/01/07 04:55:33;;;;;;;18.57;12.60;;;;;;;-0.40;87.37;98720.06;493602;1143;65130;-72
2021/01/07 05:05:37;;;;;;;17.60;11.47;;;;;;;-0.44;88.15;98727.05;494090;1143;65593;-71
2021/01/07 05:15:41;;;;;;;23.87;13.67;;;;;;;-0.32;87.37;98719.80;494366;1144;65169;-72
2021/01/07 05:25:45;;;;;;;23.97;16.50;;;;;;;-0.37;87.17;98719.95;493817;1144;65138;-72
2021/01/07 05:35:50;;;;;;;31.07;19.27;;;;;;;-0.29;88.21;98728.29;494251;1144;65124;-72
2021/01/07 05:45:57;;;;;;;24.40;16.97;;;;;;;-0.32;87.14;98730.95;493751;1143;65133;-71
2021/01/07 05:56:04;;;;;;;28.17;15.07;;;;;;;-0.30;87.26;98726.58;493927;1143;65133;-72
2021/01/07 06:06:10;;;;;;;25.23;14.07;;;;;;;-0.37;87.97;98732.85;493440;1143;65488;-72
2021/01/07 06:16:15;;;;;;;20.03;13.50;;;;;;;-0.40;87.46;98740.70;493598;1144;65120;-75
2021/01/07 06:26:24;;;;;;;27.13;15.40;;;;;;;-0.51;87.91;98741.03;493520;1143;65406;-71
2021/01/07 06:36:38;;;;;;;22.70;14.10;;;;;;;-0.65;86.91;98749.20;494208;1143;65162;-71
2021/01/07 06:46:43;;;;;;;26.60;15.83;;;;;;;-0.66;87.28;98757.83;494262;1143;65472;-72
2021/01/07 06:56:52;;;;;;;17.90;11.67;;;;;;;-0.59;87.29;98772.23;494276;1143;65220;-70
2021/01/07 07:07:01;;;;;;;23.73;13.87;;;;;;;-0.46;88.15;98783.02;494022;1143;65531;-70
2021/01/07 07:17:09;;;;;;;22.27;13.30;;;;;;;-0.53;87.47;98784.09;493475;1143;65291;-71
2021/01/07 07:27:14;;;;;;;17.90;11.87;;;;;;;-0.54;87.65;98795.30;493533;1143;65219;-72
2021/01/07 07:37:20;;;;;;;18.45;12.70;;;;;;;-0.52;87.32;98798.66;493561;1143;65124;-71
2021/01/07 07:47:24;;;;;;;19.30;12.05;;;;;;;-0.40;87.47;98810.34;493848;1143;65583;-70
2021/01/07 07:57:28;;;;;;;20.10;13.23;;;;;;;-0.33;88.23;98816.98;497108;1143;65486;-60
2021/01/07 08:07:33;;;;;;;24.67;14.53;;;;;;;-0.10;87.67;98825.72;493425;1143;65467;-62
2021/01/07 08:17:37;;;;;;;24.33;14.83;;;;;;;-0.03;87.68;98828.94;493541;1143;65446;-64
2021/01/07 08:27:45;;;;;;;21.80;15.03;;;;;;;0.05;87.43;98839.00;493982;1144;65654;-64
2021/01/07 08:37:50;;;;;;;26.95;16.35;;;;;;;0.12;87.57;98841.36;485704;1143;10001965;-66
2021/01/07 08:48:05;;;;;;;23.25;14.30;;;;;;;0.33;87.10;98845.84;494010;1144;65114;-62
2021/01/07 08:58:09;;;;;;;22.10;13.85;;;;;;;0.52;86.16;98839.16;492966;1143;66028;-63
2021/01/07 09:08:15;;;;;;;23.97;14.77;;;;;;;0.78;86.29;98842.55;493035;1144;65175;-65
2021/01/07 09:18:20;;;;;;;22.43;14.10;;;;;;;1.00;86.71;98841.78;493440;1143;65545;-62
2021/01/07 09:28:23;;;;;;;20.00;12.55;;;;;;;0.92;86.36;98833.45;493339;1143;65188;-64
2021/01/07 09:38:28;;;;;;;18.47;13.60;;;;;;;1.27;86.40;98828.70;492848;1143;65740;-65
2021/01/07 09:48:32;;;;;;;16.87;11.97;;;;;;;1.29;85.43;98831.24;492981;1143;65149;-65
2021/01/07 09:58:36;;;;;;;17.77;12.13;;;;;;;1.31;85.17;98830.26;493220;1143;65201;-64
2021/01/07 10:08:39;;;;;;;15.43;11.57;;;;;;;1.20;85.57;98832.41;493353;1143;65177;-65
2021/01/07 10:18:44;;;;;;;20.40;13.60;;;;;;;1.13;85.07;98821.45;493006;1143;65113;-67
2021/01/07 10:28:50;;;;;;;20.35;12.25;;;;;;;1.37;85.29;98829.19;493572;1143;65206;-66
2021/01/07 10:38:57;;;;;;;18.80;13.75;;;;;;;1.61;84.95;98829.13;494098;1143;65491;-66
2021/01/07 10:49:02;;;;;;;18.40;14.60;;;;;;;1.95;84.78;98830.36;493736;1143;65112;-65
2021/01/07 10:59:23;;;;;;;18.40;13.90;;;;;;;2.06;84.38;98825.58;493651;1143;65107;-62
2021/01/07 11:09:33;;;;;;;20.53;14.73;;;;;;;1.91;84.18;98821.91;493909;1143;65475;-62
2021/01/07 11:19:38;;;;;;;17.97;12.63;;;;;;;1.70;84.22;98817.59;493669;1144;65113;-61
2021/01/07 11:29:44;;;;;;;19.27;13.13;;;;;;;1.73;84.15;98820.05;493431;1143;65519;-66
2021/01/07 11:40:04;;;;;;;16.93;12.73;;;;;;;1.55;83.94;98812.09;493736;1144;66163;-64
2021/01/07 11:50:10;;;;;;;15.07;11.27;;;;;;;1.53;84.50;98814.77;493361;1143;65369;-64
2021/01/07 12:00:18;;;;;;;12.53;9.07;;;;;;;1.43;84.29;98816.02;496729;1143;65108;-68
2021/01/07 12:10:23;;;;;;;13.70;10.53;;;;;;;1.25;84.66;98808.06;494111;1144;65134;-69
2021/01/07 12:20:28;;;;;;;10.10;7.93;;;;;;;1.49;83.87;98807.18;493637;1143;65191;-65
2021/01/07 12:30:36;;;;;;;10.23;8.23;;;;;;;1.46;83.47;98815.07;493519;1143;65145;-68
2021/01/07 12:40:45;;;;;;;9.97;7.87;;;;;;;1.13;83.78;98807.70;494054;1144;65118;-67
2021/01/07 12:50:53;;;;;;;14.25;9.30;;;;;;;0.90;84.31;98804.23;494231;1143;65128;-64
2021/01/07 13:01:04;;;;;;;11.67;9.00;;;;;;;0.91;84.34;98806.74;494033;1144;65539;-63
2021/01/07 13:11:10;;;;;;;12.87;9.63;;;;;;;0.76;84.84;98820.23;494050;1143;65110;-65
2021/01/07 13:21:14;;;;;;;17.97;12.07;;;;;;;0.76;84.58;98835.75;494127;1143;65137;-65
2021/01/07 13:31:18;;;;;;;15.43;11.40;;;;;;;0.69;84.09;98827.37;494100;1144;65127;-66
2021/01/07 13:41:23;;;;;;;15.80;11.00;;;;;;;0.54;84.43;98839.08;493639;1143;65439;-66
2021/01/07 13:51:29;;;;;;;16.03;10.97;;;;;;;0.49;84.71;98841.00;493646;1143;65424;-63
2021/01/07 14:01:34;;;;;;;14.83;11.07;;;;;;;0.47;85.02;98845.38;493938;1143;65213;-69
2021/01/07 14:11:40;;;;;;;15.77;12.43;;;;;;;0.36;84.97;98854.34;493528;1144;65155;-66
2021/01/07 14:21:44;;;;;;;16.17;12.07;;;;;;;0.25;85.43;98870.17;493798;1143;65171;-64
2021/01/07 14:31:50;;;;;;;16.07;10.93;;;;;;;0.13;85.27;98874.03;493896;1144;65145;-65
2021/01/07 14:41:54;;;;;;;31.83;25.20;;;;;;;0.06;85.41;98876.83;494201;1143;65111;-65
2021/01/07 14:52:04;;;;;;;11.50;9.10;;;;;;;0.07;85.34;98886.30;494034;1143;65561;-65
2021/01/07 15:02:22;;;;;;;12.13;9.00;;;;;;;-0.16;85.80;98893.03;493930;1144;65203;-62
2021/01/07 15:12:29;;;;;;;11.60;7.25;;;;;;;-0.34;85.42;98897.84;494078;1143;65677;-66
2021/01/07 15:22:51;;;;;;;11.43;8.80;;;;;;;-0.43;85.59;98911.02;493990;1143;65104;-65
2021/01/07 15:33:03;;;;;;;12.43;8.30;;;;;;;-0.51;86.02;98908.67;494239;1143;65140;-68
2021/01/07 15:43:57;;;;;;;10.63;9.20;;;;;;;-0.57;86.71;98916.61;494348;1143;65588;-67
2021/01/07 15:54:33;;;;;;;14.13;9.23;;;;;;;-0.46;85.95;98911.98;494492;1143;65370;-63
2021/01/07 16:04:37;;;;;;;11.67;9.57;;;;;;;-0.57;85.83;98916.61;494023;1144;65212;-63
2021/01/07 16:14:41;;;;;;;13.97;10.43;;;;;;;-0.60;86.47;98920.11;485076;1143;10001735;-66
2021/01/07 16:24:53;;;;;;;19.07;11.80;;;;;;;-0.44;86.38;98928.25;493510;1143;65207;-58
2021/01/07 16:34:57;;;;;;;22.87;16.80;;;;;;;-0.23;86.18;98927.64;493341;1143;65127;-66
2021/01/07 16:45:02;;;;;;;19.67;15.23;;;;;;;-0.29;86.29;98934.69;493627;1144;65212;-68
2021/01/07 16:55:08;;;;;;;18.47;13.67;;;;;;;-0.53;86.06;98941.41;493887;1143;65140;-67
2021/01/07 17:05:12;;;;;;;13.83;8.90;;;;;;;-0.58;86.94;98948.42;493380;1143;65130;-72
2021/01/07 17:15:17;;;;;;;16.97;10.97;;;;;;;-0.66;86.16;98945.23;493745;1143;65163;-70
2021/01/07 17:25:21;;;;;;;16.57;10.57;;;;;;;-0.64;86.79;98956.34;493142;1143;65153;-63
2021/01/07 17:35:26;;;;;;;14.10;10.47;;;;;;;-0.62;86.87;98951.98;493642;1143;65132;-58
2021/01/07 17:45:30;;;;;;;40.70;24.33;;;;;;;-0.51;87.04;98960.26;493385;1143;65156;-62
2021/01/07 17:55:36;;;;;;;28.87;17.93;;;;;;;-0.36;86.58;98971.87;493186;1143;65359;-62
2021/01/07 18:05:40;;;;;;;29.70;19.45;;;;;;;-0.26;86.43;98967.28;492992;1143;65168;-63
2021/01/07 18:15:44;;;;;;;51.40;30.80;;;;;;;-0.31;86.09;98962.25;493029;1143;65641;-60
2021/01/07 18:25:49;;;;;;;30.20;18.85;;;;;;;-0.25;86.96;98958.64;493385;1143;65574;-66
2021/01/07 18:35:53;;;;;;;37.17;20.33;;;;;;;-0.29;86.74;98970.81;493632;1144;65462;-67
2021/01/07 18:45:57;;;;;;;37.80;19.67;;;;;;;-0.34;86.58;98974.42;493724;1143;65127;-64
2021/01/07 18:56:01;;;;;;;28.23;17.83;;;;;;;-0.41;86.26;98970.31;493708;1143;65194;-64
2021/01/07 19:06:06;;;;;;;55.37;28.40;;;;;;;-0.41;86.54;98967.73;493423;1144;65493;-65
2021/01/07 19:16:10;;;;;;;31.33;19.70;;;;;;;-0.31;86.36;98967.41;492932;1143;65488;-63
2021/01/07 19:26:19;;;;;;;33.10;19.17;;;;;;;-0.42;86.24;98966.88;492891;1143;65149;-65
2021/01/07 19:36:22;;;;;;;39.10;21.53;;;;;;;-0.42;86.23;98977.20;493511;1143;66519;-65
2021/01/07 19:46:26;;;;;;;29.70;18.75;;;;;;;-0.41;86.84;98976.30;493580;1144;65179;-68
2021/01/07 19:56:31;;;;;;;40.60;23.70;;;;;;;-0.40;87.32;98980.60;493384;1143;65114;-62
2021/01/07 20:06:37;;;;;;;30.80;19.87;;;;;;;-0.49;86.38;98992.01;493090;1143;65134;-67
2021/01/07 20:16:41;;;;;;;35.30;21.63;;;;;;;-0.50;86.69;98995.48;493784;1144;65491;-61
2021/01/07 20:26:46;;;;;;;34.20;20.47;;;;;;;-0.57;86.66;98996.56;493593;1143;65141;-60
2021/01/07 20:36:50;;;;;;;29.20;19.90;;;;;;;-0.45;87.19;99000.51;493313;1144;65181;-64
2021/01/07 20:46:57;;;;;;;28.85;18.30;;;;;;;-0.46;86.82;99012.58;493589;1143;65133;-66
2021/01/07 20:57:02;;;;;;;;;;;;;;;-0.53;86.75;99012.77;493735;1143;65172;-66
2021/01/07 21:07:06;;;;;;;35.35;22.75;;;;;;;-0.51;86.99;99001.53;493634;1143;65223;-65
2021/01/07 21:17:11;;;;;;;28.60;16.85;;;;;;;-0.48;87.52;98992.86;493327;1143;65180;-65
2021/01/07 21:27:15;;;;;;;27.20;19.65;;;;;;;-0.54;86.52;98999.05;493715;1143;65201;-62
2021/01/07 21:37:19;;;;;;;25.25;17.30;;;;;;;-0.44;86.81;99015.09;493882;1143;66031;-63
2021/01/07 21:47:23;;;;;;;27.63;16.53;;;;;;;-0.50;86.38;99017.86;493509;1144;65569;-61
2021/01/07 21:57:27;;;;;;;24.80;16.80;;;;;;;-0.61;87.84;99023.30;493282;1143;65603;-63
2021/01/07 22:07:31;;;;;;;26.40;18.65;;;;;;;-0.56;86.80;99021.45;493420;1143;65107;-61
2021/01/07 22:17:38;;;;;;;26.65;17.30;;;;;;;-0.62;86.80;99027.63;493536;1143;65223;-62
2021/01/07 22:27:42;;;;;;;26.68;16.12;;;;;;;-0.47;87.54;99033.25;493666;1143;65114;-61
2021/01/07 22:37:46;;;;;;;24.67;15.83;;;;;;;-0.45;86.68;99036.62;493802;1143;65417;-61
2021/01/07 22:47:50;;;;;;;23.37;15.47;;;;;;;-0.51;86.77;99040.22;493556;1143;65136;-62
2021/01/07 22:57:57;;;;;;;22.43;15.97;;;;;;;-0.48;86.62;99041.88;493299;1143;65113;-62
2021/01/07 23:08:01;;;;;;;21.27;15.33;;;;;;;-0.49;86.67;99042.77;493757;1143;65143;-62
2021/01/07 23:18:05;;;;;;;18.65;12.55;;;;;;;-0.40;87.11;99050.25;493101;1143;65782;-61
2021/01/07 23:28:08;;;;;;;24.57;17.40;;;;;;;-0.55;87.15;99059.25;493590;1143;65545;-59
2021/01/07 23:38:12;;;;;;;22.30;15.70;;;;;;;-0.64;87.15;99057.74;493642;1143;65201;-61
2021/01/07 23:48:16;;;;;;;24.37;15.27;;;;;;;-0.61;86.69;99056.83;493566;1143;65204;-62
2021/01/07 23:58:20;;;;;;;20.10;14.85;;;;;;;-0.65;86.13;99055.23;493475;1143;65803;-62
